createdAt,value
2019-02-06T00:01:04.023Z,97635.44
2019-02-06T00:03:35.091Z,97627.23
2019-02-06T00:06:09.286Z,97625.94
2019-02-06T00:08:41.489Z,97620.80
2019-02-06T00:11:13.960Z,97626.47
2019-02-06T00:13:46.592Z,97622.44
2019-02-06T00:16:18.634Z,97623.80
2019-02-06T00:18:49.750Z,97620.47
2019-02-06T00:21:21.204Z,97616.83
2019-02-06T00:23:52.490Z,97620.03
2019-02-06T00:26:26.280Z,97615.59
2019-02-06T00:28:57.924Z,97618.00
2019-02-06T00:31:32.321Z,97615.53
2019-02-06T00:34:04.948Z,97620.05
2019-02-06T00:36:36.698Z,97612.53
2019-02-06T00:39:10.813Z,97616.13
2019-02-06T00:41:41.826Z,97613.89
2019-02-06T00:44:14.144Z,97612.09
2019-02-06T00:46:48.018Z,97611.70
2019-02-06T00:49:19.003Z,97617.23
2019-02-06T00:51:50.058Z,97612.80
2019-02-06T00:54:22.008Z,97607.39
2019-02-06T00:56:53.230Z,97605.06
2019-02-06T00:59:24.171Z,97607.39
2019-02-06T01:01:55.599Z,97605.26
2019-02-06T01:04:27.238Z,97607.13
2019-02-06T01:06:58.476Z,97601.23
2019-02-06T01:09:30.400Z,97600.06
2019-02-06T01:12:01.547Z,97601.23
2019-02-06T01:14:33.216Z,97601.43
2019-02-06T01:17:04.308Z,97598.30
2019-02-06T01:19:35.424Z,97600.40
2019-02-06T01:22:07.703Z,97597.06
2019-02-06T01:24:39.437Z,97599.09
2019-02-06T01:27:10.406Z,97600.54
2019-02-06T01:29:44.622Z,97593.61
2019-02-06T01:32:18.346Z,97599.34
2019-02-06T01:34:50.888Z,97591.17
2019-02-06T01:37:21.971Z,97591.34
2019-02-06T01:39:53.201Z,97597.96
2019-02-06T01:42:24.538Z,97593.31
2019-02-06T01:44:56.682Z,97590.59
2019-02-06T01:47:27.857Z,97589.60
2019-02-06T01:49:58.848Z,97591.87
2019-02-06T01:52:31.055Z,97588.05
2019-02-06T01:55:02.110Z,97588.53
2019-02-06T01:57:35.146Z,97586.05
2019-02-06T02:00:18.943Z,97588.17
2019-02-06T02:02:50.093Z,97584.14
2019-02-06T02:05:22.032Z,97584.98
2019-02-06T02:07:54.275Z,97587.11
2019-02-06T02:10:25.428Z,97586.48
2019-02-06T02:12:56.759Z,97585.86
2019-02-06T02:15:28.830Z,97582.98
2019-02-06T02:18:03.529Z,97579.29
2019-02-06T02:20:34.901Z,97580.07
2019-02-06T02:23:06.191Z,97580.70
2019-02-06T02:25:37.407Z,97578.41
2019-02-06T02:28:09.768Z,97580.36
2019-02-06T02:30:54.166Z,97579.38
2019-02-06T02:33:26.188Z,97585.63
2019-02-06T02:35:59.071Z,97577.66
2019-02-06T02:38:31.091Z,97579.84
2019-02-06T02:41:05.143Z,97572.86
2019-02-06T02:43:36.262Z,97573.47
2019-02-06T02:46:07.634Z,97573.80
2019-02-06T02:48:42.774Z,97572.83
2019-02-06T02:51:15.996Z,97569.61
2019-02-06T02:53:47.730Z,97576.55
2019-02-06T02:56:19.080Z,97574.20
2019-02-06T02:58:50.222Z,97576.31
2019-02-06T03:01:32.493Z,97577.40
2019-02-06T03:04:15.454Z,97571.41
2019-02-06T03:06:47.103Z,97576.85
2019-02-06T03:09:21.746Z,97576.56
2019-02-06T03:11:56.054Z,97572.59
2019-02-06T03:14:27.393Z,97570.75
2019-02-06T03:16:58.621Z,97567.11
2019-02-06T03:19:30.835Z,97561.87
2019-02-06T03:22:03.401Z,97564.09
2019-02-06T03:24:36.080Z,97570.33
2019-02-06T03:27:07.216Z,97563.51
2019-02-06T03:29:40.655Z,97562.42
2019-02-06T03:32:11.989Z,97557.27
2019-02-06T03:34:43.940Z,97560.97
2019-02-06T03:37:15.386Z,97560.59
2019-02-06T03:39:47.401Z,97556.52
2019-02-06T03:42:18.682Z,97553.14
2019-02-06T03:44:49.751Z,97551.59
2019-02-06T03:47:21.276Z,97558.17
2019-02-06T03:49:52.335Z,97556.44
2019-02-06T03:52:23.337Z,97556.20
2019-02-06T03:54:54.418Z,97546.95
2019-02-06T03:57:25.729Z,97554.02
2019-02-06T03:59:57.029Z,97550.84
2019-02-06T04:02:36.663Z,97553.61
2019-02-06T04:05:09.130Z,97550.52
2019-02-06T04:07:40.364Z,97548.58
2019-02-06T04:10:13.883Z,97543.80
2019-02-06T04:12:45.539Z,97552.55
2019-02-06T04:15:20.749Z,97554.01
2019-02-06T04:17:54.291Z,97554.02
2019-02-06T04:20:27.163Z,97558.54
2019-02-06T04:22:58.366Z,97556.65
2019-02-06T04:25:29.620Z,97571.59
2019-02-06T04:28:01.619Z,97565.16
2019-02-06T04:30:32.666Z,97562.06
2019-02-06T04:33:04.771Z,97565.61
2019-02-06T04:35:39.303Z,97562.59
2019-02-06T04:38:10.502Z,97558.22
2019-02-06T04:40:44.484Z,97550.59
2019-02-06T04:43:15.513Z,97550.64
2019-02-06T04:45:47.016Z,97549.13
2019-02-06T04:48:20.725Z,97547.28
2019-02-06T04:50:52.417Z,97546.61
2019-02-06T04:53:23.511Z,97543.72
2019-02-06T04:55:54.727Z,97547.20
2019-02-06T04:58:25.959Z,97544.92
2019-02-06T05:00:59.405Z,97547.77
2019-02-06T05:03:31.228Z,97551.09
2019-02-06T05:06:02.664Z,97546.73
2019-02-06T05:08:34.085Z,97541.67
2019-02-06T05:11:05.596Z,97531.59
2019-02-06T05:13:36.568Z,97532.59
2019-02-06T05:16:07.678Z,97541.48
2019-02-06T05:18:39.235Z,97529.00
2019-02-06T05:21:10.558Z,97533.36
2019-02-06T05:23:42.814Z,97537.03
2019-02-06T05:26:13.813Z,97530.95
2019-02-06T05:28:47.291Z,97541.22
2019-02-06T05:31:19.455Z,97545.81
2019-02-06T05:33:51.784Z,97547.90
2019-02-06T05:36:22.977Z,97548.45
2019-02-06T05:38:56.873Z,97548.39
2019-02-06T05:41:28.188Z,97545.47
2019-02-06T05:44:01.604Z,97552.67
2019-02-06T05:46:35.017Z,97551.15
2019-02-06T05:49:06.367Z,97545.48
2019-02-06T05:51:39.764Z,97543.22
2019-02-06T05:54:13.385Z,97548.02
2019-02-06T05:56:46.220Z,97545.08
2019-02-06T05:59:17.193Z,97545.72
2019-02-06T06:01:52.184Z,97540.02
2019-02-06T06:04:24.121Z,97539.75
2019-02-06T06:06:57.046Z,97542.08
2019-02-06T06:09:28.692Z,97547.55
2019-02-06T06:12:02.503Z,97551.06
2019-02-06T06:14:34.476Z,97549.09
2019-02-06T06:17:05.693Z,97547.76
2019-02-06T06:19:36.986Z,97548.28
2019-02-06T06:22:09.990Z,97550.50
2019-02-06T06:24:41.337Z,97555.23
2019-02-06T06:27:26.311Z,97552.27
2019-02-06T06:29:58.974Z,97552.36
2019-02-06T06:32:32.190Z,97554.67
2019-02-06T06:35:03.417Z,97552.84
2019-02-06T06:37:35.393Z,97552.71
2019-02-06T06:40:10.070Z,97553.59
2019-02-06T06:42:42.700Z,97541.59
2019-02-06T06:45:18.075Z,97546.56
2019-02-06T06:47:49.238Z,97546.92
2019-02-06T06:50:22.922Z,97545.80
2019-02-06T06:52:56.742Z,97546.81
2019-02-06T06:55:28.261Z,97550.49
2019-02-06T06:58:00.578Z,97558.23
2019-02-06T07:00:33.753Z,97555.98
2019-02-06T07:03:09.141Z,97558.88
2019-02-06T07:05:41.474Z,97562.10
2019-02-06T07:08:13.523Z,97560.42
2019-02-06T07:10:45.183Z,97558.50
2019-02-06T07:13:19.652Z,97556.61
2019-02-06T07:15:50.594Z,97558.34
2019-02-06T07:18:21.585Z,97560.86
2019-02-06T07:20:56.427Z,97556.28
2019-02-06T07:23:27.676Z,97554.64
2019-02-06T07:26:01.150Z,97555.66
2019-02-06T07:28:34.615Z,97555.57
2019-02-06T07:31:06.634Z,97554.20
2019-02-06T07:33:39.504Z,97556.63
2019-02-06T07:36:11.400Z,97549.59
2019-02-06T07:38:42.471Z,97552.60
2019-02-06T07:41:19.686Z,97556.58
2019-02-06T07:43:51.177Z,97553.77
2019-02-06T07:46:23.617Z,97559.84
2019-02-06T07:49:08.308Z,97561.97
2019-02-06T07:51:41.876Z,97567.11
2019-02-06T07:54:13.338Z,97565.14
2019-02-06T07:56:44.309Z,97568.94
2019-02-06T07:59:15.331Z,97570.41
2019-02-06T08:01:48.033Z,97571.95
2019-02-06T08:04:19.018Z,97572.75
2019-02-06T08:06:50.328Z,97568.12
2019-02-06T08:09:21.314Z,97568.73
2019-02-06T08:11:56.613Z,97564.23
2019-02-06T08:14:28.047Z,97565.60
2019-02-06T08:17:00.126Z,97563.59
2019-02-06T08:19:32.220Z,97568.66
2019-02-06T08:22:03.225Z,97561.40
2019-02-06T08:24:35.483Z,97565.28
2019-02-06T08:27:07.737Z,97559.45
2019-02-06T08:29:39.797Z,97561.87
2019-02-06T08:32:11.291Z,97563.95
2019-02-06T08:34:43.261Z,97562.73
2019-02-06T08:37:14.331Z,97554.36
2019-02-06T08:39:45.689Z,97551.47
2019-02-06T08:42:16.677Z,97558.82
2019-02-06T08:44:48.038Z,97561.95
2019-02-06T08:47:19.091Z,97561.95
2019-02-06T08:49:52.260Z,97558.88
2019-02-06T08:52:23.580Z,97559.53
2019-02-06T08:54:56.753Z,97560.50
2019-02-06T08:57:28.178Z,97557.89
2019-02-06T08:59:59.726Z,97563.48
2019-02-06T09:02:31.942Z,97568.30
2019-02-06T09:05:02.927Z,97563.69
2019-02-06T09:07:34.466Z,97566.59
2019-02-06T09:10:13.292Z,97564.89
2019-02-06T09:12:43.665Z,97566.73
2019-02-06T09:15:16.183Z,97563.48
2019-02-06T09:17:52.042Z,97562.70
2019-02-06T09:20:24.952Z,97555.98
2019-02-06T09:22:57.948Z,97557.98
2019-02-06T09:25:29.891Z,97553.34
2019-02-06T09:28:02.161Z,97546.72
2019-02-06T09:30:34.461Z,97552.14
2019-02-06T09:33:07.134Z,97546.47
2019-02-06T09:35:38.634Z,97552.75
2019-02-06T09:38:10.189Z,97548.78
2019-02-06T09:40:44.462Z,97545.52
2019-02-06T09:43:17.690Z,97544.91
2019-02-06T09:45:50.271Z,97540.84
2019-02-06T09:48:22.963Z,97542.97
2019-02-06T09:50:55.191Z,97536.63
2019-02-06T09:53:26.345Z,97534.57
2019-02-06T09:55:57.414Z,97530.52
2019-02-06T09:58:29.850Z,97530.86
2019-02-06T10:01:03.886Z,97530.36
2019-02-06T10:03:34.860Z,97531.19
2019-02-06T10:06:08.059Z,97530.05
2019-02-06T10:08:39.114Z,97532.83
2019-02-06T10:11:10.482Z,97525.49
2019-02-06T10:13:42.673Z,97528.46
2019-02-06T10:16:15.192Z,97524.86
2019-02-06T10:18:46.501Z,97530.44
2019-02-06T10:21:18.166Z,97526.00
2019-02-06T10:23:49.493Z,97530.44
2019-02-06T10:26:22.081Z,97528.46
2019-02-06T10:28:53.161Z,97515.37
2019-02-06T10:31:24.572Z,97514.38
2019-02-06T10:33:55.839Z,97515.05
2019-02-06T10:36:27.247Z,97507.50
2019-02-06T10:38:58.236Z,97507.64
2019-02-06T10:41:29.280Z,97503.39
2019-02-06T10:44:01.954Z,97505.50
2019-02-06T10:47:00.793Z,97507.95
2019-02-06T10:49:32.797Z,97499.52
2019-02-06T10:52:04.276Z,97496.39
2019-02-06T10:54:35.450Z,97504.36
2019-02-06T10:57:10.000Z,97496.40
2019-02-06T10:59:39.966Z,97488.91
2019-02-06T11:02:11.178Z,97478.69
2019-02-06T11:04:42.238Z,97477.45
2019-02-06T11:07:15.785Z,97475.86
2019-02-06T11:09:47.994Z,97469.70
2019-02-06T11:12:20.275Z,97466.70
2019-02-06T11:14:51.244Z,97460.63
2019-02-06T11:17:22.830Z,97449.84
2019-02-06T11:19:55.092Z,97447.08
2019-02-06T11:22:27.253Z,97439.55
2019-02-06T11:24:59.550Z,97439.13
2019-02-06T11:27:30.940Z,97440.27
2019-02-06T11:30:06.167Z,97432.87
2019-02-06T11:32:37.315Z,97436.85
2019-02-06T11:35:13.638Z,97430.88
2019-02-06T11:37:44.724Z,97426.33
2019-02-06T11:40:19.071Z,97423.06
2019-02-06T11:42:50.427Z,97416.97
2019-02-06T11:45:25.590Z,97413.42
2019-02-06T11:47:57.301Z,97414.38
2019-02-06T11:50:33.517Z,97413.41
2019-02-06T11:53:08.323Z,97407.83
2019-02-06T11:55:41.775Z,97408.25
2019-02-06T11:58:16.023Z,97403.69
2019-02-06T12:01:12.332Z,97403.58
2019-02-06T12:03:46.031Z,97392.45
2019-02-06T12:06:19.366Z,97392.47
2019-02-06T12:08:50.478Z,97388.28
2019-02-06T12:11:22.679Z,97377.21
2019-02-06T12:13:54.025Z,97379.84
2019-02-06T12:16:25.195Z,97375.41
2019-02-06T12:18:58.050Z,97374.00
2019-02-06T12:21:29.741Z,97366.03
2019-02-06T12:24:00.801Z,97361.02
2019-02-06T12:26:32.507Z,97361.19
2019-02-06T12:29:05.740Z,97357.17
2019-02-06T12:31:37.426Z,97340.13
2019-02-06T12:34:08.815Z,97342.38
2019-02-06T12:36:40.199Z,97338.95
2019-02-06T12:39:12.299Z,97342.64
2019-02-06T12:41:43.722Z,97334.42
2019-02-06T12:44:14.768Z,97328.73
2019-02-06T12:46:47.050Z,97320.51
2019-02-06T12:49:18.022Z,97324.14
2019-02-06T12:51:52.350Z,97326.41
2019-02-06T12:54:24.435Z,97319.77
2019-02-06T12:56:55.737Z,97314.57
2019-02-06T12:59:28.186Z,97311.14
2019-02-06T13:01:59.450Z,97306.33
2019-02-06T13:04:30.524Z,97297.80
2019-02-06T13:07:01.942Z,97305.78
2019-02-06T13:09:33.153Z,97302.72
2019-02-06T13:12:04.648Z,97300.92
2019-02-06T13:14:36.602Z,97293.71
2019-02-06T13:17:07.699Z,97294.34
2019-02-06T13:19:38.802Z,97288.53
2019-02-06T13:22:09.895Z,97289.03
2019-02-06T13:24:41.096Z,97289.49
2019-02-06T13:27:12.429Z,97283.72
2019-02-06T13:29:43.973Z,97285.23
2019-02-06T13:32:15.975Z,97280.84
2019-02-06T13:34:47.935Z,97279.31
2019-02-06T13:37:19.323Z,97277.71
2019-02-06T13:39:50.792Z,97269.45
2019-02-06T13:42:22.065Z,97275.50
2019-02-06T13:44:53.332Z,97270.66
2019-02-06T13:47:24.454Z,97273.60
2019-02-06T13:49:55.683Z,97258.84
2019-02-06T13:52:27.126Z,97263.52
2019-02-06T13:54:58.304Z,97265.41
2019-02-06T13:57:33.748Z,97256.52
2019-02-06T14:00:03.315Z,97254.71
2019-02-06T14:02:36.031Z,97254.48
2019-02-06T14:05:08.079Z,97246.06
2019-02-06T14:07:39.534Z,97237.81
2019-02-06T14:10:13.783Z,97241.81
2019-02-06T14:12:46.110Z,97230.29
2019-02-06T14:15:21.207Z,97231.30
2019-02-06T14:17:52.458Z,97218.54
2019-02-06T14:20:23.838Z,97216.51
2019-02-06T14:23:04.678Z,97209.52
2019-02-06T14:25:51.914Z,97205.58
2019-02-06T14:29:19.938Z,97198.41
2019-02-06T14:32:44.460Z,97201.52
2019-02-06T14:35:57.474Z,97197.17
2019-02-06T14:38:55.555Z,97202.24
2019-02-06T14:42:26.202Z,97195.86
2019-02-06T14:45:48.053Z,97200.80
2019-02-06T14:49:14.080Z,97184.62
2019-02-06T14:53:03.873Z,97191.13
2019-02-06T14:56:27.487Z,97180.50
2019-02-06T14:59:27.896Z,97173.41
2019-02-06T15:03:07.659Z,97177.09
2019-02-06T15:06:26.352Z,97168.16
2019-02-06T15:09:48.886Z,97163.20
2019-02-06T15:13:32.038Z,97160.98
2019-02-06T15:16:48.247Z,97161.11
2019-02-06T15:20:19.325Z,97156.09
2019-02-06T15:23:39.872Z,97155.84
2019-02-06T15:26:52.750Z,97150.47
2019-02-06T15:29:57.480Z,97146.47
2019-02-06T15:33:40.027Z,97144.70
2019-02-06T15:37:20.043Z,97142.91
2019-02-06T15:40:39.156Z,97143.52
2019-02-06T15:43:51.628Z,97137.65
2019-02-06T15:47:02.090Z,97137.47
2019-02-06T15:50:28.554Z,97134.20
2019-02-06T15:53:54.679Z,97130.02
2019-02-06T15:57:21.147Z,97127.57
2019-02-06T16:00:33.091Z,97129.64
2019-02-06T16:03:59.915Z,97128.16
2019-02-06T16:07:08.071Z,97129.11
2019-02-06T16:10:03.014Z,97125.23
2019-02-06T16:13:23.587Z,97126.17
2019-02-06T16:16:42.659Z,97128.80
2019-02-06T16:20:05.911Z,97126.80
2019-02-06T16:23:31.594Z,97134.12
2019-02-06T16:26:41.500Z,97130.95
2019-02-06T16:29:33.804Z,97136.78
2019-02-06T16:32:52.190Z,97129.41
2019-02-06T16:36:14.837Z,97128.63
2019-02-06T16:39:17.013Z,97128.90
2019-02-06T16:42:23.651Z,97128.95
2019-02-06T16:45:23.518Z,97126.50
2019-02-06T16:48:44.768Z,97124.48
2019-02-06T16:52:21.275Z,97124.53
2019-02-06T16:55:23.568Z,97120.30
2019-02-06T16:58:44.148Z,97117.05
2019-02-06T17:02:24.545Z,97109.86
2019-02-06T17:06:08.340Z,97114.35
2019-02-06T17:09:43.393Z,97109.16
2019-02-06T17:12:43.047Z,97107.86
2019-02-06T17:16:13.262Z,97100.07
2019-02-06T17:19:50.204Z,97101.66
2019-02-06T17:22:56.740Z,97094.24
2019-02-06T17:26:30.310Z,97097.98
2019-02-06T17:29:29.497Z,97098.39
2019-02-06T17:32:54.153Z,97089.92
2019-02-06T17:36:08.667Z,97089.34
2019-02-06T17:39:28.259Z,97090.05
2019-02-06T17:42:41.390Z,97089.12
2019-02-06T17:46:05.679Z,97090.67
2019-02-06T17:49:05.296Z,97089.08
2019-02-06T17:52:28.401Z,97079.27
2019-02-06T17:55:27.843Z,97070.67
2019-02-06T17:58:05.881Z,97070.91
2019-02-06T18:00:55.698Z,97073.66
2019-02-06T18:03:28.409Z,97064.19
2019-02-06T18:05:59.505Z,97061.59
2019-02-06T18:08:31.130Z,97062.27
2019-02-06T18:11:02.495Z,97059.66
2019-02-06T18:13:33.868Z,97057.20
2019-02-06T18:16:05.149Z,97056.25
2019-02-06T18:18:37.494Z,97046.62
2019-02-06T18:21:08.664Z,97053.27
2019-02-06T18:23:40.043Z,97049.52
2019-02-06T18:26:11.299Z,97051.19
2019-02-06T18:28:42.922Z,97055.45
2019-02-06T18:31:14.507Z,97046.52
2019-02-06T18:33:48.170Z,97051.92
2019-02-06T18:36:19.433Z,97048.16
2019-02-06T18:38:52.739Z,97050.61
2019-02-06T18:41:24.010Z,97052.13
2019-02-06T18:43:55.730Z,97057.18
2019-02-06T18:46:26.786Z,97063.19
2019-02-06T18:48:58.775Z,97059.94
2019-02-06T18:51:29.966Z,97063.52
2019-02-06T18:54:01.162Z,97057.15
2019-02-06T18:56:32.551Z,97054.52
2019-02-06T18:59:03.958Z,97054.00
2019-02-06T19:01:35.054Z,97053.06
2019-02-06T19:04:12.682Z,97050.63
2019-02-06T19:06:44.641Z,97051.11
2019-02-06T19:09:17.222Z,97052.10
2019-02-06T19:11:48.580Z,97048.84
2019-02-06T19:14:20.506Z,97041.83
2019-02-06T19:16:51.999Z,97037.91
2019-02-06T19:19:25.425Z,97038.08
2019-02-06T19:21:56.230Z,97039.86
2019-02-06T19:24:27.244Z,97028.80
2019-02-06T19:26:58.411Z,97019.00
2019-02-06T19:29:30.199Z,97021.78
2019-02-06T19:32:01.731Z,97015.11
2019-02-06T19:34:33.046Z,97014.47
2019-02-06T19:37:04.498Z,97011.34
2019-02-06T19:39:36.247Z,97011.69
2019-02-06T19:42:07.415Z,97015.09
2019-02-06T19:44:38.391Z,97009.25
2019-02-06T19:47:09.427Z,97011.70
2019-02-06T19:49:40.440Z,97007.13
2019-02-06T19:52:12.176Z,97005.82
2019-02-06T19:54:46.073Z,97006.65
2019-02-06T19:57:16.056Z,96998.98
2019-02-06T19:59:47.452Z,96994.75
2019-02-06T20:02:18.626Z,96999.14
2019-02-06T20:04:50.139Z,96989.84
2019-02-06T20:07:21.246Z,96989.03
2019-02-06T20:09:53.902Z,96990.84
2019-02-06T20:12:25.925Z,96991.00
2019-02-06T20:14:56.887Z,96983.50
2019-02-06T20:17:27.965Z,96979.27
2019-02-06T20:19:58.934Z,96975.84
2019-02-06T20:22:30.007Z,96975.84
2019-02-06T20:25:01.062Z,96984.14
2019-02-06T20:27:32.708Z,96987.69
2019-02-06T20:30:04.441Z,96985.44
2019-02-06T20:32:36.080Z,96977.47
2019-02-06T20:35:09.622Z,96986.11
2019-02-06T20:37:40.750Z,96978.08
2019-02-06T20:40:19.044Z,96973.02
2019-02-06T20:42:50.821Z,96978.23
2019-02-06T20:45:22.702Z,96976.44
2019-02-06T20:47:54.131Z,96970.42
2019-02-06T20:50:28.772Z,96966.35
2019-02-06T20:53:00.609Z,96965.19
2019-02-06T20:55:31.742Z,96963.71
2019-02-06T20:58:02.987Z,96968.73
2019-02-06T21:00:36.662Z,96970.40
2019-02-06T21:03:08.358Z,96956.88
2019-02-06T21:05:39.411Z,96960.59
2019-02-06T21:08:10.497Z,96960.28
2019-02-06T21:10:41.546Z,96950.86
2019-02-06T21:13:12.593Z,96944.66
2019-02-06T21:15:43.871Z,96937.98
2019-02-06T21:18:14.871Z,96929.67
2019-02-06T21:20:46.775Z,96927.73
2019-02-06T21:23:17.769Z,96926.58
2019-02-06T21:25:48.771Z,96921.68
2019-02-06T21:28:19.779Z,96925.27
2019-02-06T21:30:50.823Z,96923.48
2019-02-06T21:33:22.389Z,96912.91
2019-02-06T21:35:53.449Z,96915.52
2019-02-06T21:38:24.537Z,96918.27
2019-02-06T21:40:55.759Z,96907.50
2019-02-06T21:43:26.782Z,96906.21
2019-02-06T21:45:57.756Z,96910.78
2019-02-06T21:48:28.779Z,96905.38
2019-02-06T21:50:59.785Z,96908.48
2019-02-06T21:53:30.863Z,96907.17
2019-02-06T21:56:01.817Z,96912.91
2019-02-06T21:58:32.893Z,96916.42
2019-02-06T22:01:04.793Z,96917.11
2019-02-06T22:03:35.752Z,96916.58
2019-02-06T22:06:07.878Z,96916.61
2019-02-06T22:08:39.213Z,96914.98
2019-02-06T22:11:10.263Z,96913.03
2019-02-06T22:13:42.813Z,96912.52
2019-02-06T22:16:13.898Z,96909.28
2019-02-06T22:18:44.952Z,96900.83
2019-02-06T22:21:15.923Z,96912.23
2019-02-06T22:23:46.913Z,96909.80
2019-02-06T22:26:17.889Z,96902.63
2019-02-06T22:28:49.397Z,96894.00
2019-02-06T22:31:20.675Z,96903.57
2019-02-06T22:33:51.739Z,96898.47
2019-02-06T22:36:23.033Z,96888.89
2019-02-06T22:38:54.710Z,96881.42
2019-02-06T22:41:26.072Z,96878.19
2019-02-06T22:44:06.304Z,96882.23
2019-02-06T22:46:30.399Z,96878.97
2019-02-06T22:49:01.695Z,96870.71
2019-02-06T22:51:34.878Z,96867.13
2019-02-06T22:54:06.344Z,96864.02
2019-02-06T22:56:37.916Z,96864.52
2019-02-06T22:59:09.264Z,96862.75
2019-02-06T23:01:48.861Z,96845.34
2019-02-06T23:04:19.924Z,96834.44
2019-02-06T23:06:51.316Z,96833.28
2019-02-06T23:09:22.384Z,96823.16
2019-02-06T23:11:53.898Z,96819.75
2019-02-06T23:14:26.527Z,96816.18
2019-02-06T23:19:26.043Z,96814.73
2019-02-06T23:21:58.685Z,96812.41
2019-02-06T23:24:30.274Z,96813.72
2019-02-06T23:27:01.333Z,96804.27
2019-02-06T23:29:32.783Z,96810.14
2019-02-06T23:32:04.178Z,96802.69
2019-02-06T23:34:35.190Z,96805.47
2019-02-06T23:37:06.452Z,96804.80
2019-02-06T23:39:38.227Z,96803.31
2019-02-06T23:42:11.372Z,96789.80
2019-02-06T23:44:43.895Z,96787.05
2019-02-06T23:47:19.908Z,96781.52
2019-02-06T23:49:50.965Z,96779.28
2019-02-06T23:52:22.370Z,96775.02
2019-02-06T23:54:53.608Z,96768.19
2019-02-06T23:57:24.967Z,96761.70
2019-02-06T23:59:57.389Z,96762.20
